createdAt,value
2017-04-07T00:00:09.653Z,20.46
2017-04-07T00:01:19.928Z,20.4
2017-04-07T00:02:30.199Z,20.44
2017-04-07T00:03:40.725Z,20.48
2017-04-07T00:04:50.995Z,20.44
2017-04-07T00:06:01.270Z,20.44
2017-04-07T00:07:11.538Z,20.32
2017-04-07T00:08:21.844Z,20.44
2017-04-07T00:09:32.368Z,20.49
2017-04-07T00:10:42.634Z,20.4
2017-04-07T00:11:52.912Z,20.39
2017-04-07T00:13:03.189Z,20.33
2017-04-07T00:14:13.469Z,20.26
2017-04-07T00:15:24.033Z,20.29
2017-04-07T00:16:34.315Z,20.32
2017-04-07T00:17:44.599Z,20.32
2017-04-07T00:18:54.868Z,20.33
2017-04-07T00:20:03.891Z,20.39
2017-04-07T00:21:14.418Z,20.32
2017-04-07T00:22:24.704Z,20.29
2017-04-07T00:23:34.975Z,20.33
2017-04-07T00:24:45.262Z,20.29
2017-04-07T00:25:55.210Z,20.27
2017-04-07T00:27:05.436Z,20.29
2017-04-07T00:28:15.397Z,20.32
2017-04-07T00:29:25.673Z,20.29
2017-04-07T00:30:35.973Z,20.49
2017-04-07T00:31:46.252Z,20.48
2017-04-07T00:32:56.455Z,20.46
2017-04-07T00:34:06.514Z,20.42
2017-04-07T00:35:16.782Z,20.3
2017-04-07T00:36:27.051Z,20.34
2017-04-07T00:37:37.424Z,20.48
2017-04-07T00:38:47.317Z,20.44
2017-04-07T00:39:57.588Z,20.32
2017-04-07T00:41:07.555Z,20.33
2017-04-07T00:42:17.829Z,20.32
2017-04-07T00:43:27.164Z,20.33
2017-04-07T00:44:37.698Z,20.27
2017-04-07T00:45:47.655Z,20.32
2017-04-07T00:46:57.942Z,20.3
2017-04-07T00:48:08.217Z,20.33
2017-04-07T00:49:18.172Z,20.29
2017-04-07T00:50:28.695Z,20.34
2017-04-07T00:51:38.657Z,20.36
2017-04-07T00:52:48.619Z,20.33
2017-04-07T00:53:58.576Z,20.26
2017-04-07T00:55:08.846Z,20.29
2017-04-07T00:56:19.064Z,20.36
2017-04-07T00:57:29.331Z,20.26
2017-04-07T00:58:39.609Z,20.4
2017-04-07T00:59:49.876Z,20.34
2017-04-07T01:00:59.833Z,20.33
2017-04-07T01:02:10.046Z,20.33
2017-04-07T01:03:20.315Z,20.29
2017-04-07T01:04:30.587Z,20.29
2017-04-07T01:05:40.857Z,20.34
2017-04-07T01:06:51.121Z,20.36
2017-04-07T01:08:01.660Z,20.32
2017-04-07T01:09:11.935Z,20.32
2017-04-07T01:10:22.200Z,20.27
2017-04-07T01:11:32.170Z,20.3
2017-04-07T01:12:42.132Z,20.32
2017-04-07T01:13:52.337Z,20.33
2017-04-07T01:15:02.287Z,20.32
2017-04-07T01:16:12.564Z,20.29
2017-04-07T01:17:22.516Z,20.32
2017-04-07T01:18:32.461Z,20.34
2017-04-07T01:19:43.001Z,20.34
2017-04-07T01:20:53.284Z,20.34
2017-04-07T01:22:03.558Z,20.33
2017-04-07T01:23:13.516Z,20.27
2017-04-07T01:24:23.933Z,20.33
2017-04-07T01:25:34.464Z,20.36
2017-04-07T01:26:44.424Z,20.34
2017-04-07T01:27:54.701Z,20.33
2017-04-07T01:29:04.654Z,20.29
2017-04-07T01:30:14.926Z,20.34
2017-04-07T01:31:25.450Z,20.3
2017-04-07T01:32:35.403Z,20.33
2017-04-07T01:33:45.048Z,20.26
2017-04-07T01:34:55.315Z,20.3
2017-04-07T01:36:05.278Z,20.18
2017-04-07T01:37:15.793Z,20.36
2017-04-07T01:38:25.752Z,20.27
2017-04-07T01:39:36.023Z,20.24
2017-04-07T01:40:46.289Z,20.26
2017-04-07T01:41:55.937Z,20.26
2017-04-07T01:43:05.596Z,20.19
2017-04-07T01:44:15.553Z,20.3
2017-04-07T01:45:25.828Z,20.21
2017-04-07T01:46:36.097Z,20.18
2017-04-07T01:47:46.052Z,20.27
2017-04-07T01:48:56.264Z,20.29
2017-04-07T01:50:06.531Z,20.3
2017-04-07T01:51:16.799Z,20.21
2017-04-07T01:52:26.758Z,20.24
2017-04-07T01:53:37.044Z,20.22
2017-04-07T01:54:47.561Z,20.33
2017-04-07T01:55:57.829Z,20.26
2017-04-07T01:57:08.100Z,20.32
2017-04-07T01:58:18.061Z,20.21
2017-04-07T01:59:28.324Z,20.27
2017-04-07T02:00:38.548Z,20.21
2017-04-07T02:01:48.829Z,20.19
2017-04-07T02:02:59.104Z,20.19
2017-04-07T02:04:09.385Z,20.21
2017-04-07T02:05:19.342Z,20.24
2017-04-07T02:06:29.239Z,20.22
2017-04-07T02:07:39.503Z,20.27
2017-04-07T02:08:49.784Z,20.21
2017-04-07T02:09:59.429Z,20.18
2017-04-07T02:11:09.698Z,20.21
2017-04-07T02:12:19.913Z,20.22
2017-04-07T02:13:29.867Z,20.19
2017-04-07T02:14:40.134Z,20.18
2017-04-07T02:15:50.409Z,20.22
2017-04-07T02:17:00.689Z,20.24
2017-04-07T02:18:10.959Z,20.27
2017-04-07T02:19:21.242Z,20.17
2017-04-07T02:20:31.523Z,20.27
2017-04-07T02:21:41.802Z,20.24
2017-04-07T02:22:52.070Z,20.22
2017-04-07T02:24:02.277Z,20.24
2017-04-07T02:25:12.555Z,20.21
2017-04-07T02:26:22.522Z,20.22
2017-04-07T02:27:32.515Z,20.26
2017-04-07T02:28:42.793Z,20.19
2017-04-07T02:29:53.313Z,20.22
2017-04-07T02:31:03.575Z,20.24
2017-04-07T02:32:13.880Z,20.22
2017-04-07T02:33:23.833Z,20.27
2017-04-07T02:34:34.103Z,20.24
2017-04-07T02:35:44.059Z,20.18
2017-04-07T02:36:53.718Z,20.19
2017-04-07T02:38:03.669Z,20.24
2017-04-07T02:39:13.961Z,20.22
2017-04-07T02:40:23.920Z,20.15
2017-04-07T02:41:34.445Z,20.26
2017-04-07T02:42:44.407Z,20.24
2017-04-07T02:43:54.680Z,20.22
2017-04-07T02:45:04.956Z,20.21
2017-04-07T02:46:14.917Z,20.22
2017-04-07T02:47:25.637Z,20.24
2017-04-07T02:48:35.906Z,20.27
2017-04-07T02:49:46.173Z,20.21
2017-04-07T02:50:56.445Z,20.17
2017-04-07T02:52:06.097Z,20.26
2017-04-07T02:53:16.312Z,20.24
2017-04-07T02:54:26.266Z,20.21
2017-04-07T02:55:36.540Z,20.21
2017-04-07T02:56:46.542Z,20.19
2017-04-07T02:57:56.817Z,20.24
2017-04-07T02:59:06.768Z,20.22
2017-04-07T03:00:17.037Z,20.26
2017-04-07T03:01:26.997Z,20.19
2017-04-07T03:02:36.959Z,20.22
2017-04-07T03:03:46.921Z,20.21
2017-04-07T03:04:57.183Z,20.18
2017-04-07T03:06:07.448Z,20.08
2017-04-07T03:07:17.714Z,20.18
2017-04-07T03:08:27.986Z,20.21
2017-04-07T03:09:38.260Z,20.26
2017-04-07T03:10:48.461Z,20.24
2017-04-07T03:11:58.118Z,20.14
2017-04-07T03:13:08.390Z,20.22
2017-04-07T03:14:18.039Z,20.14
2017-04-07T03:15:28.008Z,20.24
2017-04-07T03:16:38.530Z,20.19
2017-04-07T03:17:48.793Z,20.19
2017-04-07T03:18:58.763Z,20.18
2017-04-07T03:20:09.056Z,20.18
2017-04-07T03:21:19.020Z,20.18
2017-04-07T03:22:29.598Z,20.21
2017-04-07T03:23:39.870Z,20.19
2017-04-07T03:24:50.140Z,20.18
2017-04-07T03:26:00.422Z,20.19
2017-04-07T03:27:10.705Z,20.21
2017-04-07T03:28:21.283Z,20.19
2017-04-07T03:29:31.232Z,20.21
2017-04-07T03:30:41.201Z,20.14
2017-04-07T03:31:51.481Z,20.18
2017-04-07T03:33:01.748Z,20.19
2017-04-07T03:34:11.974Z,20.22
2017-04-07T03:35:22.244Z,20.24
2017-04-07T03:36:32.216Z,20.14
2017-04-07T03:37:42.476Z,20.14
2017-04-07T03:38:52.746Z,20.27
2017-04-07T03:40:03.325Z,20.26
2017-04-07T03:41:13.593Z,20.21
2017-04-07T03:42:23.555Z,20.22
2017-04-07T03:43:33.837Z,20.18
2017-04-07T03:44:44.140Z,20.22
2017-04-07T03:45:54.353Z,20.19
2017-04-07T03:47:04.315Z,20.11
2017-04-07T03:48:14.271Z,20.18
2017-04-07T03:49:24.545Z,20.26
2017-04-07T03:50:34.196Z,20.19
2017-04-07T03:51:44.819Z,20.17
2017-04-07T03:52:55.092Z,20.19
2017-04-07T03:54:05.356Z,20.21
2017-04-07T03:55:15.669Z,20.12
2017-04-07T03:56:25.971Z,20.15
2017-04-07T03:57:36.275Z,20.17
2017-04-07T03:58:46.540Z,20.17
2017-04-07T03:59:56.512Z,20.15
2017-04-07T04:01:06.473Z,20.19
2017-04-07T04:02:16.746Z,20.07
2017-04-07T04:03:27.086Z,20.19
2017-04-07T04:04:37.363Z,20.11
2017-04-07T04:05:47.320Z,20.12
2017-04-07T04:06:57.592Z,20.12
2017-04-07T04:08:07.244Z,20.11
2017-04-07T04:09:17.241Z,20.19
2017-04-07T04:10:27.511Z,20.17
2017-04-07T04:11:37.784Z,20.22
2017-04-07T04:12:48.062Z,20.18
2017-04-07T04:13:58.341Z,20.22
2017-04-07T04:15:09.039Z,20.24
2017-04-07T04:16:18.992Z,20.22
2017-04-07T04:17:28.949Z,20.22
2017-04-07T04:18:39.220Z,20.19
2017-04-07T04:19:49.486Z,20.18
2017-04-07T04:21:00.103Z,20.22
2017-04-07T04:22:10.374Z,20.19
2017-04-07T04:23:20.336Z,20.21
2017-04-07T04:24:30.600Z,20.14
2017-04-07T04:25:40.867Z,20.26
2017-04-07T04:26:51.482Z,20.26
2017-04-07T04:28:01.462Z,20.24
2017-04-07T04:29:11.738Z,20.22
2017-04-07T04:30:21.689Z,20.18
2017-04-07T04:31:31.662Z,20.19
2017-04-07T04:32:42.282Z,20.21
2017-04-07T04:33:52.547Z,20.22
2017-04-07T04:35:02.821Z,20.24
2017-04-07T04:36:13.095Z,20.22
2017-04-07T04:37:23.061Z,20.24
2017-04-07T04:38:33.641Z,20.22
2017-04-07T04:39:43.600Z,20.26
2017-04-07T04:40:53.874Z,20.24
2017-04-07T04:42:03.856Z,20.21
2017-04-07T04:43:14.134Z,20.26
2017-04-07T04:44:24.088Z,20.22
2017-04-07T04:45:34.042Z,20.21
2017-04-07T04:46:44.331Z,20.19
2017-04-07T04:47:54.602Z,20.26
2017-04-07T04:49:04.555Z,20.18
2017-04-07T04:50:15.081Z,20.24
2017-04-07T04:51:25.058Z,20.17
2017-04-07T04:52:35.005Z,20.19
2017-04-07T04:53:44.979Z,20.24
2017-04-07T04:54:55.291Z,20.17
2017-04-07T04:56:05.521Z,20.26
2017-04-07T04:57:15.802Z,20.19
2017-04-07T04:58:26.077Z,20.15
2017-04-07T04:59:36.040Z,20.19
2017-04-07T05:00:46.020Z,20.14
2017-04-07T05:01:56.545Z,20.27
2017-04-07T05:03:06.813Z,20.21
2017-04-07T05:04:17.077Z,20.21
2017-04-07T05:05:27.036Z,20.18
2017-04-07T05:06:37.000Z,20.21
2017-04-07T05:07:47.207Z,20.19
2017-04-07T05:08:57.474Z,20.17
2017-04-07T05:10:07.754Z,20.19
2017-04-07T05:11:17.740Z,20.24
2017-04-07T05:12:28.004Z,20.24
2017-04-07T05:13:38.505Z,20.24
2017-04-07T05:14:48.173Z,20.24
2017-04-07T05:15:58.133Z,20.17
2017-04-07T05:17:08.432Z,20.29
2017-04-07T05:18:18.429Z,20.22
2017-04-07T05:19:28.956Z,20.21
2017-04-07T05:20:38.619Z,20.17
2017-04-07T05:21:48.596Z,20.21
2017-04-07T05:22:58.613Z,20.24
2017-04-07T05:24:08.892Z,20.21
2017-04-07T05:25:19.175Z,20.22
2017-04-07T05:26:29.446Z,20.22
2017-04-07T05:27:39.717Z,20.18
2017-04-07T05:28:49.692Z,20.26
2017-04-07T05:30:00.023Z,20.27
2017-04-07T05:31:10.261Z,20.27
2017-04-07T05:32:20.537Z,20.27
2017-04-07T05:33:30.197Z,20.22
2017-04-07T05:34:40.481Z,20.22
2017-04-07T05:35:50.750Z,20.19
2017-04-07T05:37:01.263Z,20.26
2017-04-07T05:38:11.546Z,20.18
2017-04-07T05:39:21.816Z,20.26
2017-04-07T05:40:31.788Z,20.21
2017-04-07T05:41:41.745Z,20.22
2017-04-07T05:42:51.948Z,20.22
2017-04-07T05:44:02.231Z,20.24
2017-04-07T05:45:12.502Z,20.19
2017-04-07T05:46:22.457Z,20.22
2017-04-07T05:47:32.730Z,20.27
2017-04-07T05:48:43.308Z,20.22
2017-04-07T05:49:53.591Z,20.27
2017-04-07T05:51:03.246Z,20.29
2017-04-07T05:52:13.534Z,20.21
2017-04-07T05:53:23.808Z,20.21
2017-04-07T05:54:33.707Z,20.27
2017-04-07T05:55:43.979Z,20.26
2017-04-07T05:56:53.934Z,20.21
2017-04-07T05:58:03.943Z,20.24
2017-04-07T05:59:14.221Z,20.22
2017-04-07T06:00:24.754Z,20.19
2017-04-07T06:01:34.729Z,20.21
2017-04-07T06:02:45.008Z,20.21
2017-04-07T06:03:55.287Z,20.17
2017-04-07T06:05:05.564Z,20.22
2017-04-07T06:06:16.076Z,20.19
2017-04-07T06:07:26.358Z,20.27
2017-04-07T06:08:36.636Z,20.29
2017-04-07T06:09:46.617Z,20.24
2017-04-07T06:10:56.918Z,20.21
2017-04-07T06:12:07.521Z,20.27
2017-04-07T06:13:17.792Z,20.24
2017-04-07T06:14:28.080Z,20.26
2017-04-07T06:15:38.360Z,20.21
2017-04-07T06:16:48.636Z,20.27
2017-04-07T06:17:59.220Z,20.26
2017-04-07T06:19:09.539Z,20.21
2017-04-07T06:20:19.831Z,20.19
2017-04-07T06:21:29.798Z,20.29
2017-04-07T06:22:39.763Z,20.21
2017-04-07T06:23:49.993Z,20.3
2017-04-07T06:25:00.274Z,20.26
2017-04-07T06:26:10.579Z,20.29
2017-04-07T06:27:20.858Z,20.24
2017-04-07T06:28:31.162Z,20.3
2017-04-07T06:29:41.679Z,20.21
2017-04-07T06:30:51.954Z,20.21
2017-04-07T06:32:01.912Z,20.21
2017-04-07T06:33:12.172Z,20.19
2017-04-07T06:34:22.458Z,20.21
2017-04-07T06:35:32.675Z,20.24
2017-04-07T06:36:42.947Z,20.24
2017-04-07T06:37:53.221Z,20.19
2017-04-07T06:39:03.513Z,20.21
2017-04-07T06:40:13.186Z,20.21
2017-04-07T06:41:23.413Z,20.22
2017-04-07T06:42:33.684Z,20.33
2017-04-07T06:43:43.671Z,20.19
2017-04-07T06:44:53.981Z,20.19
2017-04-07T06:46:04.251Z,20.29
2017-04-07T06:47:14.461Z,20.18
2017-04-07T06:48:24.420Z,20.26
2017-04-07T06:49:34.705Z,20.19
2017-04-07T06:50:44.986Z,20.27
2017-04-07T06:51:54.956Z,20.21
2017-04-07T06:53:05.175Z,20.21
2017-04-07T06:54:15.476Z,20.21
2017-04-07T06:55:25.452Z,20.24
2017-04-07T06:56:35.735Z,20.27
2017-04-07T06:57:45.795Z,20.21
2017-04-07T06:58:56.372Z,20.27
2017-04-07T07:00:06.644Z,20.22
2017-04-07T07:01:16.645Z,20.19
2017-04-07T07:02:26.629Z,20.32
2017-04-07T07:03:36.588Z,20.33
2017-04-07T07:04:47.118Z,20.24
2017-04-07T07:05:57.403Z,20.3
2017-04-07T07:07:07.698Z,20.22
2017-04-07T07:08:17.709Z,20.32
2017-04-07T07:09:27.995Z,20.21
2017-04-07T07:10:38.514Z,20.22
2017-04-07T07:11:48.485Z,20.27
2017-04-07T07:12:58.757Z,20.17
2017-04-07T07:14:09.041Z,20.27
2017-04-07T07:15:19.006Z,20.32
2017-04-07T07:16:29.518Z,20.18
2017-04-07T07:17:39.792Z,20.33
2017-04-07T07:18:49.762Z,20.18
2017-04-07T07:19:59.410Z,20.26
2017-04-07T07:21:09.685Z,20.36
2017-04-07T07:22:19.934Z,20.19
2017-04-07T07:23:30.213Z,20.21
2017-04-07T07:24:40.494Z,20.32
2017-04-07T07:25:50.762Z,20.19
2017-04-07T07:27:00.416Z,20.34
2017-04-07T07:28:10.317Z,20.21
2017-04-07T07:29:20.620Z,20.36
2017-04-07T07:30:30.592Z,20.19
2017-04-07T07:31:40.593Z,20.33
2017-04-07T07:32:50.886Z,20.18
2017-04-07T07:34:01.415Z,20.26
2017-04-07T07:35:11.685Z,20.34
2017-04-07T07:36:21.975Z,20.33
2017-04-07T07:37:31.956Z,20.29
2017-04-07T07:38:42.240Z,20.32
2017-04-07T07:39:52.770Z,20.36
2017-04-07T07:41:03.063Z,20.39
2017-04-07T07:42:13.413Z,20.32
2017-04-07T07:43:23.718Z,20.36
2017-04-07T07:44:33.693Z,20.32
2017-04-07T07:45:44.122Z,20.32
2017-04-07T07:46:54.403Z,20.22
2017-04-07T07:48:04.377Z,20.21
2017-04-07T07:49:14.663Z,20.33
2017-04-07T07:50:24.619Z,20.29
2017-04-07T07:51:35.147Z,20.3
2017-04-07T07:52:45.123Z,20.33
2017-04-07T07:53:55.082Z,20.33
2017-04-07T07:55:05.404Z,20.33
2017-04-07T07:56:15.753Z,20.36
2017-04-07T07:57:26.289Z,20.3
2017-04-07T07:58:36.553Z,20.34
2017-04-07T07:59:46.536Z,20.36
2017-04-07T08:00:56.824Z,20.32
2017-04-07T08:02:06.503Z,20.34
2017-04-07T08:03:16.763Z,20.3
2017-04-07T08:04:26.411Z,20.42
2017-04-07T08:05:36.711Z,20.46
2017-04-07T08:06:46.990Z,20.42
2017-04-07T08:07:56.959Z,20.44
2017-04-07T08:09:07.571Z,20.44
2017-04-07T08:10:17.898Z,20.48
2017-04-07T08:11:28.170Z,20.48
2017-04-07T08:12:38.442Z,20.56
2017-04-07T08:13:48.720Z,20.52
2017-04-07T08:14:59.306Z,20.5
2017-04-07T08:16:08.961Z,20.5
2017-04-07T08:17:18.939Z,20.56
2017-04-07T08:18:28.900Z,20.48
2017-04-07T08:19:39.204Z,20.53
2017-04-07T08:20:49.434Z,20.56
2017-04-07T08:21:59.742Z,20.53
2017-04-07T08:23:10.082Z,20.55
2017-04-07T08:24:20.370Z,20.52
2017-04-07T08:25:30.031Z,20.55
2017-04-07T08:26:40.117Z,20.58
2017-04-07T08:27:50.399Z,20.58
2017-04-07T08:29:00.779Z,20.63
2017-04-07T08:30:10.797Z,20.58
2017-04-07T08:31:20.810Z,20.59
2017-04-07T08:32:31.046Z,20.64
2017-04-07T08:33:41.347Z,20.6
2017-04-07T08:34:51.640Z,20.63
2017-04-07T08:36:01.655Z,20.53
2017-04-07T08:37:11.942Z,20.64
2017-04-07T08:38:22.275Z,20.66
2017-04-07T08:39:32.558Z,20.64
2017-04-07T08:40:42.909Z,20.6
2017-04-07T08:41:52.889Z,20.66
2017-04-07T08:43:03.362Z,20.59
2017-04-07T08:44:13.973Z,20.78
2017-04-07T08:45:23.942Z,20.78
2017-04-07T08:46:33.926Z,20.75
2017-04-07T08:47:44.236Z,20.74
2017-04-07T08:48:54.556Z,20.78
2017-04-07T08:50:04.805Z,20.77
2017-04-07T08:51:15.119Z,20.74
2017-04-07T08:52:25.703Z,20.75
2017-04-07T08:53:36.026Z,20.75
2017-04-07T08:54:46.033Z,20.75
2017-04-07T08:55:56.273Z,20.8
2017-04-07T08:57:06.583Z,20.74
2017-04-07T08:58:16.553Z,20.78
2017-04-07T08:59:26.861Z,20.75
2017-04-07T09:00:37.153Z,20.78
2017-04-07T09:01:47.385Z,20.78
2017-04-07T09:02:57.653Z,20.75
2017-04-07T09:04:07.975Z,20.77
2017-04-07T09:05:17.936Z,20.75
2017-04-07T09:06:28.215Z,20.71
2017-04-07T09:07:38.760Z,20.83
2017-04-07T09:08:49.042Z,20.8
2017-04-07T09:09:59.354Z,20.8
2017-04-07T09:11:09.334Z,20.8
2017-04-07T09:12:19.612Z,20.85
2017-04-07T09:13:29.865Z,20.78
2017-04-07T09:14:40.235Z,20.82
2017-04-07T09:15:50.524Z,20.8
2017-04-07T09:17:00.489Z,20.82
2017-04-07T09:18:10.783Z,20.82
2017-04-07T09:19:21.325Z,20.88
2017-04-07T09:20:31.300Z,20.89
2017-04-07T09:21:41.600Z,20.86
2017-04-07T09:22:51.878Z,20.89
2017-04-07T09:24:02.174Z,20.96
2017-04-07T09:25:12.471Z,20.93
2017-04-07T09:26:22.746Z,21.04
2017-04-07T09:27:32.712Z,20.96
2017-04-07T09:28:43.005Z,20.96
2017-04-07T09:29:53.287Z,21
2017-04-07T09:31:03.813Z,20.96
2017-04-07T09:32:13.795Z,21
2017-04-07T09:33:23.770Z,20.95
2017-04-07T09:34:33.755Z,20.89
2017-04-07T09:35:44.026Z,20.89
2017-04-07T09:36:54.017Z,20.98
2017-04-07T09:38:03.978Z,20.89
2017-04-07T09:39:13.959Z,20.9
2017-04-07T09:40:24.247Z,21
2017-04-07T09:41:34.212Z,20.96
2017-04-07T09:42:44.798Z,20.96
2017-04-07T09:43:54.777Z,21
2017-04-07T09:45:04.757Z,21.07
2017-04-07T09:46:15.050Z,20.98
2017-04-07T09:47:25.038Z,20.98
2017-04-07T09:48:35.305Z,20.96
2017-04-07T09:49:45.285Z,21.04
2017-04-07T09:50:55.559Z,21.03
2017-04-07T09:52:05.781Z,21.14
2017-04-07T09:53:16.069Z,21.15
2017-04-07T09:54:26.655Z,21.08
2017-04-07T09:55:36.946Z,21.15
2017-04-07T09:56:47.243Z,21.13
2017-04-07T09:57:57.540Z,21.17
2017-04-07T09:59:07.821Z,21.15
2017-04-07T10:00:18.366Z,21.23
2017-04-07T10:01:28.350Z,21.22
2017-04-07T10:02:38.649Z,21.26
2017-04-07T10:03:48.609Z,21.32
2017-04-07T10:04:58.603Z,21.3
2017-04-07T10:06:08.886Z,21.3
2017-04-07T10:07:18.864Z,21.26
2017-04-07T10:08:29.154Z,21.29
2017-04-07T10:09:38.811Z,21.26
2017-04-07T10:10:48.792Z,21.29
2017-04-07T10:11:59.375Z,21.17
2017-04-07T10:13:09.349Z,21.33
2017-04-07T10:14:19.639Z,21.29
2017-04-07T10:15:29.620Z,21.26
2017-04-07T10:16:39.899Z,21.29
2017-04-07T10:17:50.440Z,21.22
2017-04-07T10:19:00.718Z,21.23
2017-04-07T10:20:10.724Z,21.26
2017-04-07T10:21:20.994Z,21.29
2017-04-07T10:22:31.273Z,21.38
2017-04-07T10:23:41.502Z,21.28
2017-04-07T10:24:51.824Z,21.25
2017-04-07T10:26:02.111Z,21.23
2017-04-07T10:27:12.405Z,21.22
2017-04-07T10:28:22.688Z,21.2
2017-04-07T10:29:32.928Z,21.22
2017-04-07T10:30:43.212Z,21.25
2017-04-07T10:31:52.884Z,21.2
2017-04-07T10:33:03.198Z,21.22
2017-04-07T10:34:13.489Z,21.23
2017-04-07T10:35:23.977Z,21.17
2017-04-07T10:36:34.293Z,21.2
2017-04-07T10:37:44.653Z,21.25
2017-04-07T10:38:54.946Z,21.19
2017-04-07T10:40:05.248Z,21.22
2017-04-07T10:41:15.800Z,21.26
2017-04-07T10:42:25.779Z,21.2
2017-04-07T10:43:36.107Z,21.23
2017-04-07T10:44:46.106Z,21.3
2017-04-07T10:45:56.422Z,21.22
2017-04-07T10:47:06.968Z,21.28
2017-04-07T10:48:17.251Z,21.25
2017-04-07T10:49:27.528Z,21.25
2017-04-07T10:50:37.815Z,21.33
2017-04-07T10:51:47.798Z,21.33
2017-04-07T10:52:58.339Z,21.25
2017-04-07T10:54:08.624Z,21.29
2017-04-07T10:55:18.908Z,21.28
2017-04-07T10:56:28.870Z,21.3
2017-04-07T10:57:39.149Z,21.29
2017-04-07T10:58:49.676Z,21.23
2017-04-07T10:59:59.645Z,21.29
2017-04-07T11:01:09.621Z,21.26
2017-04-07T11:02:19.586Z,21.32
2017-04-07T11:03:29.560Z,21.25
2017-04-07T11:04:40.092Z,21.32
2017-04-07T11:05:50.371Z,21.26
2017-04-07T11:07:00.024Z,21.35
2017-04-07T11:08:10.306Z,21.37
2017-04-07T11:09:20.621Z,21.23
2017-04-07T11:10:30.534Z,21.32
2017-04-07T11:11:40.526Z,21.3
2017-04-07T11:12:50.821Z,21.32
2017-04-07T11:14:01.099Z,21.3
2017-04-07T11:15:11.501Z,21.4
2017-04-07T11:16:21.711Z,21.3
2017-04-07T11:17:31.674Z,21.22
2017-04-07T11:18:41.949Z,21.23
2017-04-07T11:19:51.925Z,21.25
2017-04-07T11:21:02.203Z,21.3
2017-04-07T11:22:12.766Z,21.3
2017-04-07T11:23:23.068Z,21.3
2017-04-07T11:24:33.349Z,21.26
2017-04-07T11:25:43.340Z,21.22
2017-04-07T11:26:53.347Z,21.2
2017-04-07T11:28:03.881Z,21.19
2017-04-07T11:29:14.225Z,21.26
2017-04-07T11:30:24.563Z,21.23
2017-04-07T11:31:34.554Z,21.19
2017-04-07T11:32:44.213Z,21.28
2017-04-07T11:33:54.757Z,21.23
2017-04-07T11:35:05.059Z,21.19
2017-04-07T11:36:15.361Z,21.13
2017-04-07T11:37:25.344Z,21.22
2017-04-07T11:38:35.637Z,21.17
2017-04-07T11:39:46.160Z,21.19
2017-04-07T11:40:56.442Z,21.19
2017-04-07T11:42:06.712Z,21.19
2017-04-07T11:43:16.524Z,21.13
2017-04-07T11:44:26.474Z,21.15
2017-04-07T11:45:36.640Z,21.17
2017-04-07T11:46:46.609Z,21.15
2017-04-07T11:47:56.562Z,21.17
2017-04-07T11:49:06.894Z,21.13
2017-04-07T11:50:17.209Z,21.15
2017-04-07T11:51:27.757Z,21.23
2017-04-07T11:52:38.050Z,21.17
2017-04-07T11:53:48.033Z,21.13
2017-04-07T11:54:58.025Z,21.17
2017-04-07T11:56:08.010Z,21.14
2017-04-07T11:57:18.242Z,21.26
2017-04-07T11:58:28.221Z,21.23
2017-04-07T11:59:38.205Z,21.22
2017-04-07T12:00:48.163Z,21.22
2017-04-07T12:01:58.131Z,21.15
2017-04-07T12:03:08.694Z,21.17
2017-04-07T12:04:18.994Z,21.15
2017-04-07T12:05:29.293Z,21.17
2017-04-07T12:06:39.317Z,21.25
2017-04-07T12:07:49.612Z,21.22
2017-04-07T12:09:00.181Z,21.19
2017-04-07T12:10:10.471Z,21.17
2017-04-07T12:11:20.766Z,21.22
2017-04-07T12:12:31.054Z,21.23
2017-04-07T12:13:40.717Z,21.19
2017-04-07T12:14:50.949Z,21.17
2017-04-07T12:16:01.245Z,21.2
2017-04-07T12:17:11.559Z,21.17
2017-04-07T12:18:21.520Z,21.22
2017-04-07T12:19:31.828Z,21.17
2017-04-07T12:20:42.065Z,21.17
2017-04-07T12:21:52.350Z,21.15
2017-04-07T12:23:02.331Z,21.22
2017-04-07T12:24:12.306Z,21.2
2017-04-07T12:25:22.288Z,21.15
2017-04-07T12:26:32.501Z,21.17
2017-04-07T12:27:42.781Z,21.15
2017-04-07T12:28:53.087Z,21.11
2017-04-07T12:30:03.070Z,21.11
2017-04-07T12:31:13.357Z,21.2
2017-04-07T12:32:23.904Z,21.15
2017-04-07T12:33:34.220Z,21.17
2017-04-07T12:34:44.242Z,21.2
2017-04-07T12:35:55.023Z,21.17
2017-04-07T12:37:05.322Z,21.14
2017-04-07T12:38:15.912Z,21.15
2017-04-07T12:39:26.218Z,21.2
2017-04-07T12:40:36.508Z,21.15
2017-04-07T12:41:46.793Z,21.13
2017-04-07T12:42:57.088Z,21.08
2017-04-07T12:44:07.003Z,21.13
2017-04-07T12:45:16.997Z,21.1
2017-04-07T12:46:27.301Z,21.19
2017-04-07T12:47:37.605Z,21.2
2017-04-07T12:48:47.877Z,21.15
2017-04-07T12:49:58.091Z,21.15
2017-04-07T12:51:08.060Z,21.14
2017-04-07T12:52:18.373Z,21.11
2017-04-07T12:53:28.664Z,21.14
2017-04-07T12:54:38.938Z,21.11
2017-04-07T12:55:49.223Z,21.13
2017-04-07T12:56:59.192Z,21.14
2017-04-07T12:58:09.171Z,21.11
2017-04-07T12:59:19.141Z,21.13
2017-04-07T13:00:29.436Z,21.19
2017-04-07T13:01:39.662Z,21.03
2017-04-07T13:02:49.954Z,21.14
2017-04-07T13:04:00.246Z,21.1
2017-04-07T13:05:10.525Z,21.01
2017-04-07T13:06:20.810Z,21
2017-04-07T13:07:31.034Z,21.01
2017-04-07T13:08:41.020Z,21.03
2017-04-07T13:09:50.988Z,21.13
2017-04-07T13:11:00.960Z,21.11
2017-04-07T13:12:11.270Z,21.13
2017-04-07T13:13:21.498Z,21.1
2017-04-07T13:14:31.791Z,21.13
2017-04-07T13:15:41.454Z,21
2017-04-07T13:16:51.122Z,21.05
2017-04-07T13:18:01.092Z,21.1
2017-04-07T13:19:11.683Z,21.14
2017-04-07T13:20:21.361Z,21.05
2017-04-07T13:21:31.640Z,21.05
2017-04-07T13:22:41.300Z,21.05
2017-04-07T13:23:51.583Z,21.01
2017-04-07T13:25:01.787Z,21.07
2017-04-07T13:26:12.114Z,21
2017-04-07T13:27:22.408Z,21.05
2017-04-07T13:28:32.390Z,21.01
2017-04-07T13:29:42.359Z,21.05
2017-04-07T13:30:52.905Z,21.1
2017-04-07T13:32:03.187Z,21.11
2017-04-07T13:33:13.481Z,21.1
2017-04-07T13:34:23.774Z,21.15
2017-04-07T13:35:33.751Z,21.1
2017-04-07T13:36:43.992Z,21.08
2017-04-07T13:37:54.290Z,21.11
2017-04-07T13:39:04.568Z,21.1
2017-04-07T13:40:14.863Z,21.13
2017-04-07T13:41:25.151Z,21.1
2017-04-07T13:42:35.745Z,21.15
2017-04-07T13:43:46.037Z,21.08
2017-04-07T13:44:56.030Z,21.14
2017-04-07T13:46:06.347Z,21.01
2017-04-07T13:47:16.657Z,21.08
2017-04-07T13:48:27.225Z,21.05
2017-04-07T13:49:37.231Z,21.14
2017-04-07T13:50:47.209Z,21.15
2017-04-07T13:51:57.524Z,21.1
2017-04-07T13:53:07.835Z,21.13
2017-04-07T13:54:17.804Z,21.13
2017-04-07T13:55:28.131Z,21.13
2017-04-07T13:56:38.431Z,21.05
2017-04-07T13:57:48.399Z,21.13
2017-04-07T13:58:58.701Z,21.14
2017-04-07T14:00:08.978Z,21.15
2017-04-07T14:01:19.310Z,21.11
2017-04-07T14:02:29.599Z,21.14
2017-04-07T14:03:39.882Z,21.14
2017-04-07T14:04:49.857Z,21.17
2017-04-07T14:06:00.421Z,21.14
2017-04-07T14:07:10.739Z,21.11
2017-04-07T14:08:21.034Z,21.14
2017-04-07T14:09:31.334Z,21.15
2017-04-07T14:10:41.617Z,21.15
2017-04-07T14:11:52.172Z,21.2
2017-04-07T14:13:02.489Z,21.17
2017-04-07T14:14:12.793Z,21.17
2017-04-07T14:15:23.091Z,21.2
2017-04-07T14:16:33.064Z,21.22
2017-04-07T14:17:43.672Z,21.22
2017-04-07T14:18:53.692Z,21.28
2017-04-07T14:20:04.011Z,21.23
2017-04-07T14:21:14.294Z,21.29
2017-04-07T14:22:24.592Z,21.25
2017-04-07T14:23:35.140Z,21.29
2017-04-07T14:24:45.438Z,21.38
2017-04-07T14:25:55.738Z,21.23
2017-04-07T14:27:06.050Z,21.32
2017-04-07T14:28:16.037Z,21.28
2017-04-07T14:29:26.269Z,21.26
2017-04-07T14:30:36.253Z,21.32
2017-04-07T14:31:46.545Z,21.29
2017-04-07T14:32:56.827Z,21.35
2017-04-07T14:34:07.137Z,21.28
2017-04-07T14:35:17.418Z,21.3
2017-04-07T14:36:27.737Z,21.32
2017-04-07T14:37:38.039Z,21.29
2017-04-07T14:38:48.035Z,21.25
2017-04-07T14:39:58.347Z,21.22
2017-04-07T14:41:08.911Z,21.28
2017-04-07T14:42:19.233Z,21.28
2017-04-07T14:43:29.555Z,21.28
2017-04-07T14:44:39.874Z,21.38
2017-04-07T14:45:50.173Z,21.3
2017-04-07T14:47:00.717Z,21.28
2017-04-07T14:48:10.713Z,21.26
2017-04-07T14:49:21.024Z,21.26
2017-04-07T14:50:31.018Z,21.25
2017-04-07T14:51:41.033Z,21.35
2017-04-07T14:52:51.263Z,21.29
2017-04-07T14:54:01.580Z,21.28
2017-04-07T14:55:11.573Z,21.28
2017-04-07T14:56:21.555Z,21.26
2017-04-07T14:57:31.864Z,21.26
2017-04-07T14:58:42.103Z,21.32
2017-04-07T14:59:52.453Z,21.23
2017-04-07T15:01:02.434Z,21.25
2017-04-07T15:02:12.118Z,21.29
2017-04-07T15:03:22.458Z,21.3
2017-04-07T15:04:32.751Z,21.22
2017-04-07T15:05:43.032Z,21.28
2017-04-07T15:06:53.344Z,21.23